Nearby METAR Reports

 

KVCT - Victoria, Texas, USA
Distance from station: E 12mi, 20km
Updated: 10/26/2020 4:51pm
Mostly cloudy
Mostly cloudy
 Wind from ESE
Wind: ESE 14 mph , 22 km/h
Temperature: 81°F , 27°C
Heat Index: 85°F , 29°C
Dew Point: 70°F , 21°C
Humidity: 70%
Barometer: 29.88 inHg , 1011.9 hPa
Clouds: Mostly cloudy
Visibility: 10 miles , 16 km
Cloud details: Few Clouds 3000 ft
Partly cloudy 3700 ft
Mostly cloudy 4800 ft
2020/10/26 21:51 KVCT 262151Z 11012KT 10SM FEW030 SCT037 BKN048 27/21 A2988 RMK AO2 SLP115 T02670211
KPKV - Port Lavaca, Texas, USA
Distance from station: ESE 31mi, 50km
Updated: 10/26/2020 5:15pm
Clear
Clear
 Wind from ESE
Wind: ESE 16 mph , 26 km/h
Temperature: 82°F , 28°C
Heat Index: 86°F , 30°C
Dew Point: 72°F , 22°C
Humidity: 70%
Barometer: 29.89 inHg , 1012.2 hPa
Clouds: Clear
Visibility: 10 miles , 16 km
2020/10/26 22:15 KPKV 262215Z AUTO 12014KT 10SM CLR 28/22 A2989 RMK AO2 T02800215
 
KT20 - Gonzales Muni, Texas, USA
Distance from station: NNW 50mi, 81km
Updated: 10/26/2020 5:15pm
Overcast
Overcast
 Wind from N
Wind: N 17 mph , 28 km/h, Gust: 23 mph , 37 km/h
Temperature: 61°F , 16°C
Dew Point: 52°F , 11°C
Humidity: 72%
Barometer: 29.95 inHg , 1014.2 hPa
Clouds: Overcast
Visibility: 10 miles , 16 km
Cloud details: Overcast 1600 ft
2020/10/26 22:15 KT20 262215Z AUTO 36015G20KT 10SM OVC016 16/11 A2995 RMK AO2 T01550113
KBEA - Beeville Muni, Texas, USA
Distance from station: SW 51mi, 83km
Updated: 09/30/2020 12:55am
NOT Current
Clear
Clear
 Wind from W
Wind: W 3 mph , 6 km/h
Temperature: 57°F , 14°C
Dew Point: 52°F , 11°C
Humidity: 82%
Barometer: 30.11 inHg , 1019.6 hPa
Clouds: Clear
Visibility: 10 miles , 16 km
2020/09/30 05:55 KBEA 300555Z AUTO 26003KT 10SM CLR 14/11 A3011 RMK AO2 T01420107 10245 20141 402760129
 
KRKP - Rockport, Texas, USA
Distance from station: S 53mi, 86km
Updated: 10/26/2020 4:53pm
Few Clouds
Few Clouds
 Wind from ESE
Wind: ESE 14 mph , 22 km/h
Temperature: 82°F , 28°C
Heat Index: 86°F , 30°C
Dew Point: 72°F , 22°C
Humidity: 70%
Barometer: 29.85 inHg , 1010.8 hPa
Clouds: Few Clouds
Visibility: 10 miles , 16 km
Cloud details: Few Clouds 6500 ft
2020/10/26 21:53 KRKP 262153Z AUTO 12012KT 10SM FEW065 28/22 A2985 RMK AO2 SLP110 T02780222
KPSX - Palacios, Texas, USA
Distance from station: E 55mi, 88km
Updated: 10/26/2020 4:52pm
Mostly cloudy
Mostly cloudy
 Wind from SE
Wind: SE 16 mph , 26 km/h
Temperature: 81°F , 27°C
Heat Index: 85°F , 29°C
Dew Point: 70°F , 21°C
Humidity: 70%
Barometer: 29.89 inHg , 1012.2 hPa
Clouds: Mostly cloudy
Visibility: 10 miles , 16 km
Cloud details: Mostly cloudy 6500 ft
2020/10/26 21:52 KPSX 262152Z AUTO 13014KT 10SM BKN065 27/21 A2989 RMK AO2 SLP120 T02670211
 
KTFP - Ingleside/Tp Mcc, Texas, USA
Distance from station: S 65mi, 104km
Updated: 10/26/2020 5:15pm
Partly cloudy
Partly cloudy
 Wind from SSE
Wind: SSE 14 mph , 22 km/h, Gust: 21 mph , 33 km/h
Temperature: 84°F , 29°C
Heat Index: 96°F , 36°C
Dew Point: 79°F , 26°C
Humidity: 84%
Barometer: 29.84 inHg , 1010.5 hPa
Clouds: Partly cloudy
Visibility: 10 miles , 16 km
Cloud details: Partly cloudy 2100 ft
Partly cloudy 2800 ft
2020/10/26 22:15 KTFP 262215Z AUTO 15012G18KT 10SM SCT021 SCT028 29/26 A2984 RMK AO2 T02910261 PNO
K66R - Columbus, Texas, USA
Distance from station: NE 66mi, 106km
Updated: 10/26/2020 5:15pm
Overcast
Overcast
 Wind from calm
Wind: Calm
Temperature: 77°F , 25°C
Dew Point: 73°F , 23°C
Humidity: 89%
Barometer: 29.91 inHg , 1012.9 hPa
Clouds: Overcast
Visibility: 10 miles , 16 km
Cloud details: Partly cloudy 3900 ft
Partly cloudy 4600 ft
Overcast 9000 ft
2020/10/26 22:15 K66R 262215Z AUTO 00000KT 10SM SCT039 SCT046 OVC090 25/23 A2991 RMK AO2 T02450225
 
KARM - Wharton, Texas, USA
Distance from station: ENE 66mi, 106km
Updated: 10/26/2020 5:15pm
Partly cloudy
Partly cloudy
 Wind from SE
Wind: SE 15 mph , 24 km/h, Gust: 18 mph , 30 km/h
Temperature: 82°F , 28°C
Heat Index: 83°F , 28°C
Dew Point: 63°F , 17°C
Humidity: 51%
Barometer: 29.90 inHg , 1012.5 hPa
Clouds: Partly cloudy
Visibility: 10 miles , 16 km
Cloud details: Partly cloudy 3700 ft
Partly cloudy 4400 ft
Partly cloudy 7000 ft
2020/10/26 22:15 KARM 262215Z AUTO 14013G16KT 10SM SCT037 SCT044 SCT070 28/17 A2990 RMK AO2 T02810172
KRAS - Port Aransas, Texas, USA
Distance from station: S 71mi, 115km
Updated: 10/26/2020 5:15pm
Clear
Clear
 Wind from ESE
Wind: ESE 12 mph , 19 km/h
Temperature: 82°F , 28°C
Heat Index: 87°F , 31°C
Dew Point: 73°F , 23°C
Humidity: 74%
Barometer: 29.87 inHg , 1011.5 hPa
Clouds: Clear
Visibility: 10 miles , 16 km
2020/10/26 22:15 KRAS 262215Z AUTO 11010KT 10SM CLR 28/23 A2987 RMK AO2 T02780229
 
KELA - Eagle Lake, Texas, USA
Distance from station: NE 72mi, 115km
Updated: 10/26/2020 5:15pm
Rain, Overcast
Rain, Overcast
 Wind from WSW
Wind: WSW 5 mph , 7 km/h
Temperature: 81°F , 27°C
Heat Index: 85°F , 29°C
Dew Point: 72°F , 22°C
Humidity: 74%
Barometer: 29.89 inHg , 1012.2 hPa
Summary: Rain
Clouds: Overcast
Visibility: 10 miles , 16 km
Cloud details: Overcast 3900 ft
2020/10/26 22:15 KELA 262215Z AUTO 25004KT 10SM RA OVC039 27/22 A2989 RMK AO2 T02720223
K3T5 - La Grange, Texas, USA
Distance from station: N 73mi, 118km
Updated: 10/26/2020 4:55pm
Overcast
Overcast
 Wind from N
Wind: N 17 mph , 28 km/h, Gust: 23 mph , 37 km/h
Temperature: 57°F , 14°C
Dew Point: 54°F , 12°C
Humidity: 88%
Barometer: 29.95 inHg , 1014.2 hPa
Clouds: Overcast
Visibility: 10 miles , 16 km
Cloud details: Overcast 900 ft
2020/10/26 21:55 K3T5 262155Z AUTO 35015G20KT 10SM OVC009 14/12 A2995 RMK AO2 T01440121
 
KBYY - Bay City, Texas, USA
Distance from station: E 77mi, 124km
Updated: 10/26/2020 5:15pm
Clear
Clear
 Wind from SE
Wind: SE 12 mph , 19 km/h
Temperature: 81°F , 27°C
Heat Index: 83°F , 28°C
Dew Point: 66°F , 19°C
Humidity: 62%
Barometer: 29.90 inHg , 1012.5 hPa
Clouds: Clear
Visibility: 10 miles , 16 km
2020/10/26 22:15 KBYY 262215Z AUTO 13010KT 10SM CLR 27/19 A2990 RMK AO2 T02740192
KCRP - Corpus Christi, Texas, USA
Distance from station: SSW 78mi, 126km
Updated: 10/26/2020 4:51pm
Few Clouds
Few Clouds
 Wind from ESE
Wind: ESE 18 mph , 30 km/h, Gust: 25 mph , 41 km/h
Temperature: 84°F , 29°C
Heat Index: 89°F , 32°C
Dew Point: 72°F , 22°C
Humidity: 66%
Barometer: 29.83 inHg , 1010.2 hPa
Clouds: Few Clouds
Visibility: 10 miles , 16 km
Cloud details: Few Clouds 3100 ft
Few Clouds 4400 ft
2020/10/26 21:51 KCRP 262151Z 12016G22KT 10SM FEW031 FEW044 29/22 A2983 RMK SLP100
 
KNGP - C. Christi Nas, Texas, USA
Distance from station: S 81mi, 130km
Updated: 10/26/2020 4:56pm
Few Clouds
Few Clouds
 Wind from SE
Wind: SE 21 mph , 33 km/h
Temperature: 84°F , 29°C
Heat Index: 89°F , 32°C
Dew Point: 72°F , 22°C
Humidity: 66%
Barometer: 29.84 inHg , 1010.5 hPa
Clouds: Few Clouds
Visibility: 10 miles , 16 km
Cloud details: Few Clouds 2500 ft
2020/10/26 21:56 KNGP 262156Z 13018KT 10SM FEW025 29/22 A2984 RMK AO2 SLP103 T02940222
KRBO - Robstown/Nueces, Texas, USA
Distance from station: SSW 81mi, 130km
Updated: 10/26/2020 5:15pm
Partly cloudy
Partly cloudy
 Wind from ESE
Wind: ESE 20 mph , 31 km/h, Gust: 23 mph , 37 km/h
Temperature: 84°F , 29°C
Heat Index: 88°F , 31°C
Dew Point: 70°F , 21°C
Humidity: 62%
Barometer: 29.83 inHg , 1010.2 hPa
Clouds: Partly cloudy
Visibility: 10 miles , 16 km
Cloud details: Partly cloudy 3300 ft
Partly cloudy 4000 ft
2020/10/26 22:15 KRBO 262215Z AUTO 12017G20KT 10SM SCT033 SCT040 29/21 A2983 RMK AO2 T02940206
 
KBAZ - New Braunfels, Texas, USA
Distance from station: NW 81mi, 131km
Updated: 10/26/2020 4:51pm
Overcast
Overcast
 Wind from NNE
Wind: NNE 22 mph , 35 km/h, Gust: 31 mph , 50 km/h
Temperature: 57°F , 14°C
Dew Point: 48°F , 9°C
Humidity: 72%
Barometer: 29.95 inHg , 1014.2 hPa
Clouds: Overcast
Visibility: 10 miles , 16 km
Cloud details: Overcast 1400 ft
2020/10/26 21:51 KBAZ 262151Z 02019G27KT 10SM OVC014 14/09 A2995 RMK AO2 PK WND 02028/2140 SLP136 T01390089
KRND - Randolph Afb, Texas, USA
Distance from station: NW 82mi, 132km
Updated: 10/26/2020 4:56pm
Overcast
Overcast
 Wind from N
Wind: N 23 mph , 37 km/h
Temperature: 57°F , 14°C
Dew Point: 50°F , 10°C
Humidity: 77%
Barometer: 29.92 inHg , 1013.2 hPa
Clouds: Overcast
Visibility: 10 miles , 16 km
Cloud details: Overcast 1300 ft
2020/10/26 21:56 KRND 262156Z 01020KT 10SM OVC013 14/10 A2992 RMK AO2A SLP128 T01390095
 
KHYI - San Marcos, Texas, USA
Distance from station: NNW 84mi, 135km
Updated: 10/26/2020 4:56pm
Overcast
Overcast
 Wind from N
Wind: N 22 mph , 35 km/h, Gust: 32 mph , 52 km/h
Temperature: 52°F , 11°C
Dew Point: 48°F , 9°C
Humidity: 88%
Barometer: 29.99 inHg , 1015.6 hPa
Clouds: Overcast
Visibility: 10 miles , 16 km
Cloud details: Overcast 1000 ft
2020/10/26 21:56 KHYI 262156Z 01019G28KT 10SM OVC010 11/09 A2999 RMK AO2 PK WND 01028/2152 SLP150 T01110089
KPEZ - Pleasanton Muni, Texas, USA
Distance from station: W 84mi, 135km
Updated: 10/26/2020 5:15pm
Mostly cloudy
Mostly cloudy
 Wind from NNE
Wind: NNE 22 mph , 35 km/h, Gust: 36 mph , 57 km/h
Temperature: 81°F , 27°C
Heat Index: 82°F , 28°C
Dew Point: 61°F , 16°C
Humidity: 51%
Barometer: 29.86 inHg , 1011.2 hPa
Clouds: Mostly cloudy
Visibility: 10 miles , 16 km
Cloud details: Partly cloudy 5000 ft
Partly cloudy 6500 ft
Mostly cloudy 8000 ft
2020/10/26 22:15 KPEZ 262215Z AUTO 02019G31KT 10SM SCT050 SCT065 BKN080 27/16 A2986 RMK AO2 T02740157